Time;durP1;ratioP1;P1;durP2;ratioP2;P2;SDS_P1;SDS_P2;PMS_P1;PMS_P2;Temp;Humidity;BMP_temperature;BMP_pressure;BME280_temperature;BME280_humidity;BME280_pressure;Samples;Min_cycle;Max_cycle;Signal;HPM_P1;HPM_P2
2022/06/10 00:01:00;;;;;;;0.03;0.03;;;;;;;16.49;58.23;100521.63;7353375;19;20478;-61
2022/06/10 00:03:27;;;;;;;0.00;0.00;;;;;;;16.45;57.93;100520.06;7353703;19;20013;-62
2022/06/10 00:05:56;;;;;;;0.00;0.00;;;;;;;16.43;58.04;100516.69;7352919;19;20018;-62
2022/06/10 00:08:24;;;;;;;0.00;0.00;;;;;;;16.37;58.43;100509.03;7352494;19;20015;-63
2022/06/10 00:10:51;;;;;;;0.00;0.00;;;;;;;16.32;58.03;100520.69;7355025;19;20013;-62
2022/06/10 00:13:18;;;;;;;0.00;0.00;;;;;;;16.18;58.62;100495.94;7352296;19;20018;-61
2022/06/10 00:15:45;;;;;;;0.00;0.00;;;;;;;16.23;58.40;100515.88;7353259;19;20492;-62
2022/06/10 00:18:10;;;;;;;0.00;0.00;;;;;;;16.20;58.62;100521.28;7352137;19;19998;-63
2022/06/10 00:20:36;;;;;;;0.00;0.00;;;;;;;16.17;58.90;100520.56;7361100;19;20014;-62
2022/06/10 00:23:02;;;;;;;0.00;0.00;;;;;;;16.09;58.37;100510.41;7364457;19;20014;-62
2022/06/10 00:25:28;;;;;;;0.00;0.00;;;;;;;16.09;59.46;100521.81;7364938;19;20034;-63
2022/06/10 00:27:54;;;;;;;0.00;0.00;;;;;;;16.07;58.85;100525.44;7366880;19;20811;-61
2022/06/10 00:30:23;;;;;;;0.00;0.00;;;;;;;16.02;59.46;100530.94;7368455;19;20006;-61
2022/06/10 00:32:49;;;;;;;0.00;0.00;;;;;;;15.97;59.52;100518.91;7368608;19;19999;-62
2022/06/10 00:35:15;;;;;;;0.00;0.00;;;;;;;15.97;59.63;100526.81;7365956;19;20339;-62
2022/06/10 00:37:41;;;;;;;0.00;0.00;;;;;;;15.92;60.19;100531.47;7368128;19;20081;-62
2022/06/10 00:40:10;;;;;;;0.00;0.00;;;;;;;15.91;59.56;100535.00;7371196;19;20007;-62
2022/06/10 00:42:37;;;;;;;0.00;0.00;;;;;;;15.89;59.98;100531.59;7368547;19;20006;-63
2022/06/10 00:45:04;;;;;;;0.00;0.00;;;;;;;15.85;60.53;100536.13;7371319;19;20010;-62
2022/06/10 00:47:39;;;;;;;0.00;0.00;;;;;;;15.86;58.71;100531.72;7369046;19;20002;-62
2022/06/10 00:50:16;;;;;;;0.00;0.00;;;;;;;15.82;59.59;100526.63;7370669;19;20011;-62
2022/06/10 00:52:47;;;;;;;0.00;0.00;;;;;;;15.79;60.35;100518.84;7369252;19;20025;-62
2022/06/10 00:55:13;;;;;;;0.00;0.00;;;;;;;15.75;59.92;100530.44;7369066;19;20018;-62
2022/06/10 00:57:44;;;;;;;0.03;0.03;;;;;;;15.76;59.77;100526.91;7367759;19;20017;-62
2022/06/10 01:00:16;;;;;;;0.00;0.00;;;;;;;15.74;60.84;100534.00;7366736;19;20007;-62
2022/06/10 01:02:42;;;;;;;0.00;0.00;;;;;;;15.73;60.70;100536.72;7369084;19;20018;-63
2022/06/10 01:05:14;;;;;;;0.00;0.00;;;;;;;15.73;60.96;100536.72;7367632;19;20685;-63
2022/06/10 01:07:56;;;;;;;0.00;0.00;;;;;;;15.72;60.14;100533.25;7370191;19;20006;-63
2022/06/10 01:10:22;;;;;;;0.00;0.00;;;;;;;15.70;60.26;100548.25;7368289;19;20017;-63
2022/06/10 01:12:56;;;;;;;0.00;0.00;;;;;;;15.71;60.55;100539.44;7368347;19;20014;-62
2022/06/10 01:15:44;;;;;;;0.00;0.00;;;;;;;15.68;61.14;100538.72;7369617;19;20748;-62
2022/06/10 01:18:15;;;;;;;0.03;0.03;;;;;;;15.67;60.83;100543.13;7366570;19;20017;-60
2022/06/10 01:21:01;;;;;;;0.00;0.00;;;;;;;15.66;61.06;100536.16;7368163;19;20006;-63
2022/06/10 01:23:36;;;;;;;0.03;0.03;;;;;;;15.65;60.83;100544.13;7369670;19;20014;-63
2022/06/10 01:26:29;;;;;;;0.00;0.00;;;;;;;15.63;59.96;100538.94;7367995;19;20040;-62
2022/06/10 01:29:29;;;;;;;0.00;0.00;;;;;;;15.61;60.49;100542.50;7265530;19;2004273;-62
2022/06/10 01:32:02;;;;;;;0.00;0.00;;;;;;;15.57;61.30;100536.56;7259263;19;2004492;-62
2022/06/10 01:34:38;;;;;;;0.00;0.00;;;;;;;15.55;61.68;100538.38;7365354;19;20031;-63
2022/06/10 01:37:22;;;;;;;0.00;0.00;;;;;;;15.50;62.32;100550.91;7369936;19;20014;-62
2022/06/10 01:40:03;;;;;;;0.00;0.00;;;;;;;15.48;62.31;100552.75;7367505;19;20351;-63
2022/06/10 01:42:37;;;;;;;0.00;0.00;;;;;;;15.48;62.15;100556.25;7368194;19;20011;-62
2022/06/10 01:45:35;;;;;;;0.00;0.00;;;;;;;15.49;61.50;100551.81;7368914;19;20432;-63
2022/06/10 01:48:16;;;;;;;0.00;0.00;;;;;;;15.46;61.88;100555.47;7264882;19;2004207;-63
2022/06/10 01:50:47;;;;;;;0.00;0.00;;;;;;;15.46;61.33;100546.69;7369675;19;20034;-63
2022/06/10 01:53:38;;;;;;;0.00;0.00;;;;;;;15.46;60.78;100544.06;7366706;19;20010;-62
2022/06/10 01:56:30;;;;;;;0.00;0.00;;;;;;;15.45;60.84;100550.25;7264991;19;2004568;-62
2022/06/10 01:59:05;;;;;;;0.00;0.00;;;;;;;15.41;62.18;100551.31;7256452;19;2004645;-63
2022/06/10 02:01:37;;;;;;;0.00;0.00;;;;;;;15.39;62.72;100551.38;7365612;19;20009;-62
2022/06/10 02:04:15;;;;;;;0.00;0.00;;;;;;;15.38;61.48;100543.56;7367444;19;21024;-62
2022/06/10 02:06:51;;;;;;;0.00;0.00;;;;;;;15.35;62.17;100546.31;7366729;19;19999;-63
2022/06/10 02:09:22;;;;;;;0.00;0.00;;;;;;;15.30;61.74;100539.50;7367902;19;19999;-62
2022/06/10 02:11:54;;;;;;;0.00;0.00;;;;;;;15.27;62.53;100533.53;7367552;19;20367;-62
2022/06/10 02:14:37;;;;;;;0.00;0.00;;;;;;;15.26;62.27;100537.09;7365976;19;20029;-62
2022/06/10 02:17:07;;;;;;;0.00;0.00;;;;;;;15.24;62.78;100539.75;7368113;19;20014;-62
2022/06/10 02:19:44;;;;;;;0.00;0.00;;;;;;;15.23;62.22;100542.47;7363194;19;20920;-62
2022/06/10 02:22:15;;;;;;;0.00;0.00;;;;;;;15.20;63.25;100542.59;7366838;19;20010;-63
2022/06/10 02:24:50;;;;;;;0.00;0.00;;;;;;;15.18;62.38;100534.78;7365576;19;20025;-63
2022/06/10 02:27:20;;;;;;;0.00;0.00;;;;;;;15.17;61.97;100543.59;7365925;19;20018;-62
2022/06/10 02:30:10;;;;;;;0.00;0.00;;;;;;;15.10;62.34;100526.38;7363843;19;20017;-62
2022/06/10 02:32:37;;;;;;;0.00;0.00;;;;;;;15.13;63.37;100542.03;7365353;19;19998;-62
2022/06/10 02:35:04;;;;;;;;;;;;;;;15.13;61.38;100526.25;7368130;19;20006;-60
2022/06/10 02:37:54;;;;;;;0.00;0.00;;;;;;;15.12;62.46;100526.31;7367819;19;19974;-62
2022/06/10 02:40:25;;;;;;;0.00;0.00;;;;;;;15.05;61.92;100517.81;7263837;19;2004469;-63
2022/06/10 02:42:58;;;;;;;0.00;0.00;;;;;;;15.05;63.15;100523.09;7367183;19;20470;-62
2022/06/10 02:45:38;;;;;;;0.00;0.00;;;;;;;15.00;61.96;100510.16;7365579;19;20034;-62
2022/06/10 02:48:32;;;;;;;0.00;0.00;;;;;;;15.02;62.62;100513.56;7367470;19;20014;-62
2022/06/10 02:50:58;;;;;;;0.00;0.00;;;;;;;14.97;63.53;100510.28;7264061;19;2005003;-62
2022/06/10 02:53:24;;;;;;;0.00;0.00;;;;;;;14.93;63.53;100507.84;7365117;19;20524;-61
2022/06/10 02:55:49;;;;;;;0.00;0.00;;;;;;;14.97;63.42;100509.44;7368881;19;20003;-62
2022/06/10 03:01:26;;;;;;;0.00;0.00;;;;;;;14.95;62.75;100514.78;7364759;19;20014;-62
2022/06/10 03:04:20;;;;;;;0.00;0.00;;;;;;;14.94;62.38;100514.81;7249337;19;2004321;-63
2022/06/10 03:07:17;;;;;;;0.00;0.00;;;;;;;14.93;62.71;100515.75;7262185;19;2004345;-63
2022/06/10 03:10:01;;;;;;;0.00;0.00;;;;;;;14.91;63.22;100525.50;7264039;19;2004319;-63
2022/06/10 03:12:49;;;;;;;0.00;0.00;;;;;;;14.89;62.09;100517.66;7364484;19;20526;-62
2022/06/10 03:15:33;;;;;;;0.00;0.00;;;;;;;14.88;62.36;100520.34;7366761;19;20506;-62
2022/06/10 03:18:37;;;;;;;0.00;0.00;;;;;;;14.86;63.07;100530.94;7364694;19;20380;-62
2022/06/10 03:21:02;;;;;;;0.00;0.00;;;;;;;14.83;63.72;100530.22;7252258;19;2004582;-62
2022/06/10 03:23:37;;;;;;;0.00;0.00;;;;;;;14.83;62.96;100527.59;7363209;19;20014;-62
2022/06/10 03:26:16;;;;;;;0.10;0.10;;;;;;;14.81;63.28;100513.66;7363923;19;20011;-62
2022/06/10 03:28:55;;;;;;;0.00;0.00;;;;;;;14.84;63.27;100529.28;7365142;19;20015;-63
2022/06/10 03:31:42;;;;;;;0.00;0.00;;;;;;;14.85;62.51;100534.50;7361772;19;20487;-62
2022/06/10 03:34:22;;;;;;;0.05;0.05;;;;;;;14.84;63.17;100524.03;7364667;19;20006;-62
2022/06/10 03:36:49;;;;;;;0.00;0.00;;;;;;;14.74;63.81;100503.38;7365941;19;20027;-62
2022/06/10 03:39:15;;;;;;;0.00;0.00;;;;;;;14.82;64.07;100525.88;7365897;19;20592;-61
2022/06/10 03:41:53;;;;;;;0.00;0.00;;;;;;;14.81;63.92;100525.03;7362000;19;20016;-62
2022/06/10 03:44:20;;;;;;;0.00;0.00;;;;;;;14.72;63.62;100515.75;7364907;19;20029;-62
2022/06/10 03:46:49;;;;;;;0.00;0.00;;;;;;;14.80;63.88;100528.59;7365708;19;20818;-61
2022/06/10 03:49:17;;;;;;;0.00;0.00;;;;;;;14.81;63.61;100534.69;7366575;19;20115;-62
2022/06/10 03:51:44;;;;;;;0.00;0.00;;;;;;;14.81;63.93;100539.94;7362367;19;20450;-62
2022/06/10 03:54:13;;;;;;;0.00;0.00;;;;;;;14.79;64.12;100540.84;7361892;19;20015;-61
2022/06/10 03:56:38;;;;;;;0.00;0.00;;;;;;;14.78;64.30;100531.25;7366487;19;20026;-63
2022/06/10 03:59:04;;;;;;;0.00;0.00;;;;;;;14.79;64.05;100538.22;7371725;19;20009;-63
2022/06/10 04:01:29;;;;;;;0.00;0.00;;;;;;;14.77;63.94;100534.81;7370907;19;20006;-62
2022/06/10 04:03:54;;;;;;;0.00;0.00;;;;;;;14.79;64.01;100538.22;7370462;19;20065;-62
2022/06/10 04:06:20;;;;;;;0.00;0.00;;;;;;;14.83;63.11;100540.72;7370849;19;20065;-62
2022/06/10 04:08:45;;;;;;;0.03;0.03;;;;;;;14.82;63.96;100554.81;7370840;19;20485;-62
2022/06/10 04:11:11;;;;;;;0.00;0.00;;;;;;;14.82;64.27;100547.75;7370138;19;20003;-62
2022/06/10 04:13:36;;;;;;;0.10;0.10;;;;;;;14.81;63.86;100546.06;7370307;19;19998;-62
2022/06/10 04:16:02;;;;;;;0.00;0.00;;;;;;;14.82;63.61;100546.91;7370478;19;20597;-62
2022/06/10 04:18:28;;;;;;;0.00;0.00;;;;;;;14.81;64.19;100539.94;7370144;19;20006;-62
2022/06/10 04:20:54;;;;;;;0.00;0.00;;;;;;;14.82;63.95;100544.28;7371470;19;20029;-62
2022/06/10 04:23:19;;;;;;;0.00;0.00;;;;;;;14.79;64.07;100547.88;7369956;19;20002;-62
2022/06/10 04:25:45;;;;;;;0.00;0.00;;;;;;;14.81;63.58;100550.47;7369908;19;20054;-63
2022/06/10 04:28:11;;;;;;;0.00;0.00;;;;;;;14.75;63.67;100534.03;7370123;19;20010;-62
2022/06/10 04:30:43;;;;;;;0.00;0.00;;;;;;;14.79;63.94;100542.63;7370269;19;20006;-62
2022/06/10 04:33:08;;;;;;;0.00;0.00;;;;;;;14.75;63.63;100541.91;7368870;19;20035;-62
2022/06/10 04:35:36;;;;;;;0.00;0.00;;;;;;;14.77;63.84;100544.47;7371488;19;20401;-62
2022/06/10 04:38:03;;;;;;;0.00;0.00;;;;;;;14.73;64.00;100538.47;7370808;19;20026;-62
2022/06/10 04:40:30;;;;;;;0.00;0.00;;;;;;;14.76;64.16;100550.66;7368959;19;20025;-61
2022/06/10 04:42:57;;;;;;;0.00;0.00;;;;;;;14.75;64.10;100547.19;7370653;19;20010;-62
2022/06/10 04:45:26;;;;;;;0.00;0.00;;;;;;;14.76;63.69;100551.50;7370161;19;20008;-62
2022/06/10 04:47:55;;;;;;;0.03;0.03;;;;;;;14.75;63.87;100547.19;7371821;19;20014;-62
2022/06/10 04:50:23;;;;;;;0.00;0.00;;;;;;;14.74;64.20;100550.69;7371779;19;20027;-62
2022/06/10 04:52:49;;;;;;;0.00;0.00;;;;;;;14.73;63.93;100549.00;7368419;19;20442;-62
2022/06/10 04:55:15;;;;;;;0.00;0.00;;;;;;;14.75;63.98;100547.19;7371064;19;20017;-62
2022/06/10 04:57:41;;;;;;;0.00;0.00;;;;;;;14.75;64.42;100551.56;7370131;19;20051;-62
2022/06/10 05:00:10;;;;;;;0.00;0.00;;;;;;;14.77;64.14;100545.31;7367586;19;20010;-62
2022/06/10 05:02:35;;;;;;;0.00;0.00;;;;;;;14.77;64.23;100545.31;7369528;19;20110;-62
2022/06/10 05:05:02;;;;;;;0.00;0.00;;;;;;;14.79;64.14;100550.50;7369484;19;20085;-63
2022/06/10 05:07:27;;;;;;;0.00;0.00;;;;;;;14.79;64.14;100553.13;7370166;19;20612;-62
2022/06/10 05:09:53;;;;;;;0.05;0.05;;;;;;;14.80;64.54;100552.25;7370338;19;20006;-61
2022/06/10 05:12:18;;;;;;;0.10;0.10;;;;;;;14.81;63.69;100547.84;7370514;19;20355;-62
2022/06/10 05:14:44;;;;;;;0.00;0.00;;;;;;;14.85;64.25;100552.03;7367504;19;20482;-63
2022/06/10 05:17:09;;;;;;;0.00;0.00;;;;;;;14.86;64.16;100556.38;7368604;19;20459;-60
2022/06/10 05:19:35;;;;;;;0.00;0.00;;;;;;;14.87;63.78;100547.56;7367118;19;20488;-60
2022/06/10 05:22:00;;;;;;;0.00;0.00;;;;;;;14.83;63.76;100538.09;7368201;19;20753;-62
2022/06/10 05:24:26;;;;;;;0.00;0.00;;;;;;;14.93;63.69;100558.66;7369098;19;21106;-62
2022/06/10 05:26:51;;;;;;;0.00;0.00;;;;;;;14.63;63.94;100505.63;7370054;19;21678;-62
2022/06/10 05:29:16;;;;;;;0.03;0.03;;;;;;;14.98;63.39;100566.38;7367078;19;20014;-62
2022/06/10 05:31:42;;;;;;;0.00;0.00;;;;;;;15.01;63.57;100553.09;7368378;19;20402;-63
2022/06/10 05:36:52;;;;;;;0.00;0.00;;;;;;;15.10;63.26;100568.44;7370274;19;20026;-62
2022/06/10 05:39:18;;;;;;;0.00;0.00;;;;;;;15.14;63.01;100566.53;7369102;19;20014;-62
2022/06/10 05:44:27;;;;;;;0.00;0.00;;;;;;;15.20;63.13;100580.28;7368122;19;20018;-63
2022/06/10 05:46:54;;;;;;;0.00;0.00;;;;;;;15.23;63.16;100564.38;7367704;19;20764;-62
2022/06/10 05:49:20;;;;;;;0.00;0.00;;;;;;;15.27;63.48;100571.22;7368471;19;20477;-63
2022/06/10 05:51:46;;;;;;;0.00;0.00;;;;;;;15.31;63.33;100562.28;7369386;19;20018;-62
2022/06/10 05:54:12;;;;;;;0.00;0.00;;;;;;;15.39;63.28;100558.44;7367293;19;20044;-62
2022/06/10 05:56:37;;;;;;;0.00;0.00;;;;;;;15.47;63.04;100565.06;7367653;19;21470;-63
2022/06/10 05:59:03;;;;;;;0.00;0.00;;;;;;;15.56;62.96;100563.78;7362525;19;20021;-63
2022/06/10 06:01:28;;;;;;;0.00;0.00;;;;;;;15.67;62.69;100553.66;7367386;19;20010;-63
2022/06/10 06:03:54;;;;;;;0.00;0.00;;;;;;;15.77;62.13;100564.63;7367439;19;20014;-61
2022/06/10 06:06:19;;;;;;;0.00;0.00;;;;;;;15.89;61.79;100573.72;7367732;19;20007;-63
2022/06/10 06:08:46;;;;;;;0.00;0.00;;;;;;;15.86;61.62;100547.53;7367118;19;20557;-62
2022/06/10 06:11:12;;;;;;;0.00;0.00;;;;;;;16.00;61.65;100561.75;7366816;19;20025;-63
2022/06/10 06:13:37;;;;;;;0.00;0.00;;;;;;;15.99;61.15;100544.25;7366354;19;21215;-63
2022/06/10 06:16:04;;;;;;;0.10;0.10;;;;;;;16.14;61.05;100569.00;7365059;19;20469;-63
2022/06/10 06:18:29;;;;;;;0.00;0.00;;;;;;;16.19;60.86;100566.16;7364467;19;20010;-63
2022/06/10 06:20:54;;;;;;;0.00;0.00;;;;;;;16.23;61.20;100560.66;7365272;19;20009;-62
2022/06/10 06:23:20;;;;;;;0.00;0.00;;;;;;;16.30;60.46;100564.69;7365530;19;20013;-60
2022/06/10 06:25:45;;;;;;;0.00;0.00;;;;;;;16.32;60.83;100568.13;7359124;19;20009;-63
2022/06/10 06:28:11;;;;;;;0.00;0.00;;;;;;;16.42;60.33;100567.66;7358842;19;20029;-62
2022/06/10 06:30:37;;;;;;;0.00;0.00;;;;;;;16.48;60.55;100572.66;7360123;19;20014;-63
2022/06/10 06:33:06;;;;;;;0.00;0.00;;;;;;;16.52;60.00;100568.91;7350742;19;20601;-62
2022/06/10 06:35:33;;;;;;;0.00;0.00;;;;;;;16.55;59.83;100558.22;7364817;19;20010;-62
2022/06/10 06:38:01;;;;;;;0.10;0.10;;;;;;;16.57;60.11;100562.50;7364943;19;20010;-62
2022/06/10 06:40:26;;;;;;;;;;;;;;;16.66;60.18;100570.88;7362618;19;20027;-63
2022/06/10 06:42:52;;;;;;;0.05;0.05;;;;;;;16.60;59.69;100550.94;7363266;19;19915;-63
2022/06/10 06:45:19;;;;;;;0.10;0.10;;;;;;;16.63;59.45;100577.16;7364788;19;20067;-63
2022/06/10 06:47:45;;;;;;;;;;;;;;;16.70;59.49;100567.16;7367141;19;20583;-62
2022/06/10 06:50:15;;;;;;;0.00;0.00;;;;;;;16.56;59.63;100555.50;7366935;19;19950;-63
2022/06/10 06:52:41;;;;;;;0.08;0.08;;;;;;;16.65;59.64;100564.75;7364728;19;20006;-63
2022/06/10 06:55:08;;;;;;;0.00;0.00;;;;;;;16.66;59.93;100558.53;7366934;19;20022;-61
2022/06/10 06:57:33;;;;;;;0.00;0.00;;;;;;;16.67;59.66;100562.88;7364188;19;20086;-62
2022/06/10 07:00:06;;;;;;;0.00;0.00;;;;;;;16.68;60.00;100555.84;7365627;19;20531;-61
2022/06/10 07:02:34;;;;;;;0.00;0.00;;;;;;;16.69;59.91;100553.13;7358222;19;20481;-63
2022/06/10 07:04:59;;;;;;;0.00;0.00;;;;;;;16.70;59.69;100560.09;7363156;19;20483;-63
2022/06/10 07:07:25;;;;;;;0.00;0.00;;;;;;;16.67;59.39;100536.50;7365605;19;20030;-59
2022/06/10 07:09:51;;;;;;;0.00;0.00;;;;;;;16.79;59.52;100556.19;7368200;19;20023;-63
2022/06/10 07:12:16;;;;;;;0.08;0.08;;;;;;;16.69;59.57;100539.94;7364225;19;20569;-63
2022/06/10 07:14:42;;;;;;;0.00;0.00;;;;;;;16.79;59.31;100566.72;7364899;19;20014;-63
2022/06/10 07:17:08;;;;;;;0.10;0.10;;;;;;;16.86;59.26;100574.25;7364986;19;20478;-63
2022/06/10 07:19:33;;;;;;;0.00;0.00;;;;;;;16.82;58.99;100562.13;7363922;19;20066;-62
2022/06/10 07:21:59;;;;;;;0.00;0.00;;;;;;;16.91;59.12;100578.44;7362974;19;20029;-63
2022/06/10 07:24:25;;;;;;;0.00;0.00;;;;;;;16.94;59.12;100571.22;7363912;19;20006;-61
2022/06/10 07:26:50;;;;;;;0.00;0.00;;;;;;;16.95;59.18;100572.06;7364720;19;20014;-64
2022/06/10 07:29:16;;;;;;;0.00;0.00;;;;;;;16.99;59.51;100563.94;7364251;19;20497;-62
2022/06/10 07:31:41;;;;;;;0.00;0.00;;;;;;;17.02;58.94;100563.75;7371397;19;19998;-63
2022/06/10 07:34:08;;;;;;;0.00;0.00;;;;;;;17.07;58.65;100574.91;7371058;19;20481;-63
2022/06/10 07:36:35;;;;;;;0.10;0.10;;;;;;;17.12;58.53;100574.69;7369040;19;20007;-62
2022/06/10 07:39:00;;;;;;;0.10;0.10;;;;;;;17.14;58.48;100572.84;7370394;19;20089;-63
2022/06/10 07:44:10;;;;;;;0.00;0.00;;;;;;;17.21;58.16;100573.38;7371657;19;20094;-63
2022/06/10 07:46:35;;;;;;;0.00;0.00;;;;;;;17.22;58.04;100570.63;7367023;19;23133;-62
2022/06/10 07:49:01;;;;;;;0.10;0.10;;;;;;;17.28;58.17;100580.88;7362061;19;20010;-63
2022/06/10 07:51:26;;;;;;;0.00;0.00;;;;;;;17.30;58.01;100578.16;7369068;19;20456;-63
2022/06/10 07:53:52;;;;;;;0.00;0.00;;;;;;;17.36;57.36;100583.13;7369402;19;20016;-63
2022/06/10 07:56:20;;;;;;;0.00;0.00;;;;;;;17.20;57.56;100546.13;7362105;19;20102;-63
2022/06/10 07:58:47;;;;;;;0.10;0.10;;;;;;;17.35;57.30;100568.22;7369980;19;20113;-62
2022/06/10 08:01:13;;;;;;;0.00;0.00;;;;;;;17.49;56.74;100573.63;7372705;19;20176;-63
2022/06/10 08:03:39;;;;;;;0.00;0.00;;;;;;;17.55;57.31;100583.84;7367709;19;20022;-64
2022/06/10 08:06:05;;;;;;;0.00;0.00;;;;;;;17.61;56.88;100582.66;7371252;19;20473;-62
2022/06/10 08:08:30;;;;;;;0.00;0.00;;;;;;;17.64;57.46;100580.72;7368756;19;20377;-64
2022/06/10 08:10:57;;;;;;;0.00;0.00;;;;;;;17.69;56.61;100580.47;7372024;19;20026;-63
2022/06/10 08:13:23;;;;;;;0.10;0.10;;;;;;;17.73;56.59;100582.03;7370683;19;20517;-63
2022/06/10 08:15:48;;;;;;;0.00;0.00;;;;;;;17.79;56.81;100570.25;7371843;19;20006;-63
2022/06/10 08:18:17;;;;;;;0.00;0.00;;;;;;;17.84;56.91;100574.38;7368311;19;20635;-62
2022/06/10 08:23:30;;;;;;;0.05;0.05;;;;;;;17.98;56.10;100573.59;7370304;19;20018;-63
2022/06/10 08:25:57;;;;;;;0.00;0.00;;;;;;;18.00;56.42;100570.91;7369924;19;23283;-63
2022/06/10 08:28:23;;;;;;;0.00;0.00;;;;;;;18.12;55.72;100597.47;7371125;19;20474;-64
2022/06/10 08:30:49;;;;;;;0.00;0.00;;;;;;;18.17;55.67;100586.66;7368764;19;20019;-63
2022/06/10 08:33:14;;;;;;;0.10;0.10;;;;;;;18.23;56.01;100581.00;7371558;19;20013;-64
2022/06/10 08:35:40;;;;;;;0.00;0.00;;;;;;;18.32;56.37;100584.94;7369963;19;21874;-63
2022/06/10 08:38:08;;;;;;;0.00;0.00;;;;;;;18.41;55.75;100606.44;7369061;19;20007;-63
2022/06/10 08:40:42;;;;;;;0.00;0.00;;;;;;;18.52;54.61;100581.16;7370657;19;20003;-62
2022/06/10 08:43:31;;;;;;;0.00;0.00;;;;;;;18.57;54.47;100573.81;7369654;19;20030;-63
2022/06/10 08:46:22;;;;;;;0.00;0.00;;;;;;;18.65;53.99;100576.84;7370287;19;20478;-62
2022/06/10 08:49:04;;;;;;;0.00;0.00;;;;;;;18.70;54.39;100579.25;7269403;19;2004451;-62
2022/06/10 08:51:51;;;;;;;0.10;0.10;;;;;;;18.72;54.38;100578.25;7367035;19;20010;-63
2022/06/10 08:54:35;;;;;;;0.10;0.10;;;;;;;18.79;54.42;100574.28;7369179;19;20003;-64
2022/06/10 08:57:06;;;;;;;0.10;0.10;;;;;;;18.91;53.70;100565.63;7369027;19;20002;-63
2022/06/10 08:59:44;;;;;;;0.00;0.00;;;;;;;19.04;53.67;100572.84;7368355;19;20403;-62
2022/06/10 09:02:19;;;;;;;0.00;0.00;;;;;;;19.12;53.16;100587.31;7370887;19;19998;-64
2022/06/10 09:05:21;;;;;;;0.10;0.10;;;;;;;19.27;52.51;100580.25;7370594;19;20011;-63
2022/06/10 09:07:54;;;;;;;0.10;0.10;;;;;;;19.30;52.31;100564.16;7263963;19;2004369;-62
2022/06/10 09:10:23;;;;;;;0.10;0.10;;;;;;;19.33;52.40;100585.16;7360712;19;20013;-63
2022/06/10 09:13:04;;;;;;;0.10;0.10;;;;;;;19.53;52.19;100570.69;7366776;19;20017;-63
2022/06/10 09:15:32;;;;;;;0.00;0.00;;;;;;;19.59;50.93;100553.56;7370392;19;21485;-63
2022/06/10 09:18:06;;;;;;;0.00;0.00;;;;;;;19.66;51.27;100592.00;7365648;19;20007;-64
2022/06/10 09:20:35;;;;;;;0.00;0.00;;;;;;;19.65;50.85;100569.09;7371058;19;20010;-64
2022/06/10 09:23:08;;;;;;;0.00;0.00;;;;;;;19.64;51.44;100540.94;7369588;19;20026;-64
2022/06/10 09:25:45;;;;;;;0.00;0.00;;;;;;;19.75;50.37;100549.03;7369495;19;20010;-63
2022/06/10 09:28:11;;;;;;;;;;;;;;;19.86;50.91;100559.81;7370927;19;20006;-63
2022/06/10 09:30:45;;;;;;;0.03;0.03;;;;;;;19.93;49.83;100553.19;7370977;19;19989;-63
2022/06/10 09:33:53;;;;;;;0.00;0.00;;;;;;;20.11;49.37;100555.59;7369186;19;20375;-63
2022/06/10 09:36:42;;;;;;;0.05;0.05;;;;;;;20.33;49.11;100555.06;7267010;19;2004576;-63
2022/06/10 09:42:32;;;;;;;0.00;0.00;;;;;;;20.64;47.88;100565.38;7266952;19;2004650;-63
2022/06/10 09:45:06;;;;;;;0.00;0.00;;;;;;;20.79;47.93;100557.31;7367163;19;20029;-64
2022/06/10 09:47:38;;;;;;;0.00;0.00;;;;;;;20.94;46.97;100554.47;7369057;19;20006;-63
2022/06/10 09:50:09;;;;;;;0.10;0.10;;;;;;;21.26;46.16;100583.28;7370130;19;20010;-63
2022/06/10 09:52:35;;;;;;;0.00;0.00;;;;;;;21.45;45.17;100553.66;7364670;19;20082;-62
2022/06/10 09:55:15;;;;;;;0.10;0.10;;;;;;;21.65;46.51;100554.91;7368781;19;20502;-63
2022/06/10 09:57:51;;;;;;;0.00;0.00;;;;;;;21.70;46.01;100579.34;7367160;19;20002;-63
2022/06/10 10:00:21;;;;;;;0.00;0.00;;;;;;;21.82;45.44;100549.22;7366493;19;20347;-63
2022/06/10 10:02:57;;;;;;;0.00;0.00;;;;;;;22.02;45.38;100561.94;7367480;19;20010;-62
2022/06/10 10:06:07;;;;;;;0.00;0.00;;;;;;;22.11;44.89;100554.28;7370331;19;20006;-63
2022/06/10 10:09:07;;;;;;;0.10;0.10;;;;;;;22.04;44.44;100553.81;7266098;19;2004631;-60
2022/06/10 10:11:44;;;;;;;0.00;0.00;;;;;;;21.96;44.48;100559.72;7266011;19;2004397;-63
2022/06/10 10:14:24;;;;;;;0.10;0.10;;;;;;;22.06;44.57;100556.41;7365978;19;20473;-63
2022/06/10 10:16:52;;;;;;;0.10;0.10;;;;;;;22.25;43.61;100556.75;7368251;19;20926;-63
2022/06/10 10:19:44;;;;;;;0.00;0.00;;;;;;;22.57;45.03;100550.88;7366760;19;20006;-63
2022/06/10 10:22:27;;;;;;;0.10;0.10;;;;;;;22.85;43.95;100547.78;7365818;19;20003;-63
2022/06/10 10:24:52;;;;;;;0.08;0.08;;;;;;;23.04;43.46;100539.28;7365599;19;20002;-61
2022/06/10 10:27:26;;;;;;;0.00;0.00;;;;;;;23.23;43.60;100533.38;7365892;19;20465;-64
2022/06/10 10:30:02;;;;;;;0.10;0.10;;;;;;;23.42;41.70;100554.94;7366347;19;20010;-64
2022/06/10 10:32:33;;;;;;;0.00;0.00;;;;;;;23.44;41.57;100542.34;7366767;19;20037;-63
2022/06/10 10:35:17;;;;;;;0.00;0.00;;;;;;;23.62;42.61;100544.50;7367518;19;20749;-61
2022/06/10 10:37:55;;;;;;;0.10;0.10;;;;;;;23.78;41.65;100540.53;7363684;19;20583;-63
2022/06/10 10:40:29;;;;;;;0.05;0.05;;;;;;;23.79;41.22;100536.03;7368855;19;20027;-63
2022/06/10 10:42:59;;;;;;;0.00;0.00;;;;;;;24.04;42.03;100543.75;7366855;19;20006;-62
2022/06/10 10:45:32;;;;;;;0.10;0.10;;;;;;;24.38;41.90;100542.81;7367773;19;20019;-63
2022/06/10 10:48:02;;;;;;;0.10;0.10;;;;;;;24.59;39.23;100527.69;7364389;19;20014;-62
2022/06/10 10:50:32;;;;;;;0.00;0.00;;;;;;;24.77;38.21;100522.59;7367921;19;20662;-63
2022/06/10 10:52:58;;;;;;;0.10;0.10;;;;;;;24.86;38.40;100521.81;7361331;19;20110;-63
2022/06/10 10:55:33;;;;;;;0.10;0.10;;;;;;;24.88;40.03;100495.81;7366598;19;20006;-63
2022/06/10 10:57:58;;;;;;;0.10;0.10;;;;;;;24.86;37.92;100521.81;7362259;19;20050;-63
2022/06/10 11:00:43;;;;;;;0.10;0.10;;;;;;;24.80;39.17;100527.69;7360228;19;20844;-62
2022/06/10 11:03:24;;;;;;;0.10;0.10;;;;;;;24.61;39.08;100509.69;7354303;19;20010;-63
2022/06/10 11:05:52;;;;;;;0.05;0.05;;;;;;;24.35;38.57;100506.53;7363034;19;20007;-63
2022/06/10 11:08:20;;;;;;;0.00;0.00;;;;;;;24.22;37.81;100505.84;7358759;19;20756;-62
2022/06/10 11:10:53;;;;;;;0.00;0.00;;;;;;;24.04;38.74;100534.91;7359891;19;20817;-62
2022/06/10 11:13:30;;;;;;;0.10;0.10;;;;;;;23.87;38.83;100506.91;7360934;19;20099;-63
2022/06/10 11:16:18;;;;;;;0.10;0.10;;;;;;;23.91;40.63;100503.03;7358860;19;20016;-63
2022/06/10 11:18:49;;;;;;;0.10;0.10;;;;;;;24.04;39.01;100477.06;7360736;19;20069;-64
2022/06/10 11:21:14;;;;;;;0.00;0.00;;;;;;;24.39;39.58;100494.66;7359493;19;20110;-62
2022/06/10 11:23:51;;;;;;;0.00;0.00;;;;;;;24.77;40.00;100486.06;7364405;19;20049;-63
2022/06/10 11:26:20;;;;;;;0.10;0.10;;;;;;;25.03;38.38;100497.16;7360130;19;21106;-63
2022/06/10 11:28:46;;;;;;;0.10;0.10;;;;;;;25.32;38.04;100493.81;7362420;19;20561;-64
2022/06/10 11:31:19;;;;;;;0.00;0.00;;;;;;;25.69;38.87;100494.06;7364639;19;20002;-63
2022/06/10 11:33:47;;;;;;;0.10;0.10;;;;;;;25.74;37.65;100477.59;7364543;19;20616;-63
2022/06/10 11:36:23;;;;;;;0.03;0.03;;;;;;;25.81;37.65;100484.16;7365328;19;20076;-64
2022/06/10 11:39:05;;;;;;;0.00;0.00;;;;;;;25.81;36.55;100470.78;7363344;19;20014;-63
2022/06/10 11:41:32;;;;;;;0.00;0.00;;;;;;;25.76;35.47;100478.38;7366389;19;20007;-64
2022/06/10 11:44:07;;;;;;;0.10;0.10;;;;;;;25.70;35.65;100474.38;7361645;19;20039;-62
2022/06/10 11:46:42;;;;;;;0.10;0.10;;;;;;;25.61;36.87;100488.56;7364543;19;20653;-63
2022/06/10 11:49:32;;;;;;;0.10;0.10;;;;;;;25.47;36.88;100468.41;7365034;19;20010;-63
2022/06/10 11:51:58;;;;;;;0.00;0.00;;;;;;;25.27;35.29;100494.22;7364365;19;20007;-64
2022/06/10 11:54:41;;;;;;;0.10;0.10;;;;;;;25.09;36.08;100480.66;7363233;19;20482;-61
2022/06/10 12:00:06;;;;;;;0.00;0.00;;;;;;;24.65;40.02;100500.47;7263058;19;2004420;-64
2022/06/10 12:02:47;;;;;;;0.00;0.00;;;;;;;24.29;41.19;100533.72;7362644;19;20722;-63
2022/06/10 12:05:15;;;;;;;0.00;0.00;;;;;;;23.73;51.44;100542.72;7364455;19;20007;-64